sensor_id;sensor_type;location;lat;lon;timestamp;P1;durP1;ratioP1;P2;durP2;ratioP2
79025;SDS011;74892;44.760;37.726;2024-01-15T00:00:05;3.95;;;1.98;;
79025;SDS011;74892;44.760;37.726;2024-01-15T00:01:11;5.30;;;2.97;;
79025;SDS011;74892;44.760;37.726;2024-01-15T00:02:14;6.43;;;2.75;;
79025;SDS011;74892;44.760;37.726;2024-01-15T00:04:50;4.93;;;3.08;;
79025;SDS011;74892;44.760;37.726;2024-01-15T00:05:52;5.47;;;2.40;;
79025;SDS011;74892;44.760;37.726;2024-01-15T00:06:55;5.10;;;3.03;;
79025;SDS011;74892;44.760;37.726;2024-01-15T00:08:05;5.63;;;2.63;;
79025;SDS011;74892;44.760;37.726;2024-01-15T00:09:13;4.93;;;2.75;;
79025;SDS011;74892;44.760;37.726;2024-01-15T00:10:20;4.82;;;2.33;;
79025;SDS011;74892;44.760;37.726;2024-01-15T00:11:45;3.75;;;2.08;;
79025;SDS011;74892;44.760;37.726;2024-01-15T00:12:49;3.95;;;2.22;;
79025;SDS011;74892;44.760;37.726;2024-01-15T00:13:54;6.78;;;3.60;;
79025;SDS011;74892;44.760;37.726;2024-01-15T00:14:56;4.85;;;2.67;;
79025;SDS011;74892;44.760;37.726;2024-01-15T00:16:01;4.55;;;2.33;;
79025;SDS011;74892;44.760;37.726;2024-01-15T00:17:27;5.75;;;3.13;;
79025;SDS011;74892;44.760;37.726;2024-01-15T00:18:29;5.22;;;2.90;;
79025;SDS011;74892;44.760;37.726;2024-01-15T00:19:59;5.68;;;3.10;;
79025;SDS011;74892;44.760;37.726;2024-01-15T00:21:01;7.85;;;2.95;;
79025;SDS011;74892;44.760;37.726;2024-01-15T00:22:04;7.25;;;2.45;;
79025;SDS011;74892;44.760;37.726;2024-01-15T00:24:47;5.90;;;3.03;;
79025;SDS011;74892;44.760;37.726;2024-01-15T00:25:52;5.13;;;2.70;;
79025;SDS011;74892;44.760;37.726;2024-01-15T00:26:56;14.70;;;3.38;;
79025;SDS011;74892;44.760;37.726;2024-01-15T00:28:00;4.70;;;2.45;;
79025;SDS011;74892;44.760;37.726;2024-01-15T00:29:02;4.82;;;2.47;;
79025;SDS011;74892;44.760;37.726;2024-01-15T00:30:08;4.50;;;2.85;;
79025;SDS011;74892;44.760;37.726;2024-01-15T00:31:12;7.28;;;2.85;;
79025;SDS011;74892;44.760;37.726;2024-01-15T00:32:20;6.35;;;2.78;;
79025;SDS011;74892;44.760;37.726;2024-01-15T00:33:27;6.25;;;2.92;;
79025;SDS011;74892;44.760;37.726;2024-01-15T00:34:30;7.93;;;3.15;;
79025;SDS011;74892;44.760;37.726;2024-01-15T00:35:32;5.63;;;2.63;;
79025;SDS011;74892;44.760;37.726;2024-01-15T00:36:36;7.95;;;3.47;;
79025;SDS011;74892;44.760;37.726;2024-01-15T00:37:42;5.68;;;2.35;;
79025;SDS011;74892;44.760;37.726;2024-01-15T00:39:02;7.13;;;3.10;;
79025;SDS011;74892;44.760;37.726;2024-01-15T00:41:31;5.88;;;2.60;;
79025;SDS011;74892;44.760;37.726;2024-01-15T00:42:33;5.93;;;2.20;;
79025;SDS011;74892;44.760;37.726;2024-01-15T00:43:35;9.20;;;3.53;;
79025;SDS011;74892;44.760;37.726;2024-01-15T00:44:41;4.53;;;2.38;;
79025;SDS011;74892;44.760;37.726;2024-01-15T00:45:46;7.22;;;2.97;;
79025;SDS011;74892;44.760;37.726;2024-01-15T00:46:50;7.10;;;3.58;;
79025;SDS011;74892;44.760;37.726;2024-01-15T00:49:16;3.95;;;2.03;;
79025;SDS011;74892;44.760;37.726;2024-01-15T00:50:21;6.30;;;3.33;;
79025;SDS011;74892;44.760;37.726;2024-01-15T00:51:23;5.32;;;2.63;;
79025;SDS011;74892;44.760;37.726;2024-01-15T00:52:28;5.55;;;3.08;;
79025;SDS011;74892;44.760;37.726;2024-01-15T00:53:30;6.13;;;3.03;;
79025;SDS011;74892;44.760;37.726;2024-01-15T00:54:32;4.95;;;2.83;;
79025;SDS011;74892;44.760;37.726;2024-01-15T00:55:35;6.03;;;2.92;;
79025;SDS011;74892;44.760;37.726;2024-01-15T00:56:59;6.60;;;2.75;;
79025;SDS011;74892;44.760;37.726;2024-01-15T00:58:01;4.28;;;2.20;;
79025;SDS011;74892;44.760;37.726;2024-01-15T00:59:13;5.10;;;2.92;;
79025;SDS011;74892;44.760;37.726;2024-01-15T01:00:16;9.68;;;3.05;;
79025;SDS011;74892;44.760;37.726;2024-01-15T01:01:18;7.30;;;4.07;;
79025;SDS011;74892;44.760;37.726;2024-01-15T01:02:23;6.03;;;3.33;;
79025;SDS011;74892;44.760;37.726;2024-01-15T01:03:27;6.97;;;3.20;;
79025;SDS011;74892;44.760;37.726;2024-01-15T01:04:50;6.03;;;2.90;;
79025;SDS011;74892;44.760;37.726;2024-01-15T01:05:54;4.45;;;2.72;;
79025;SDS011;74892;44.760;37.726;2024-01-15T01:06:58;5.88;;;3.13;;
79025;SDS011;74892;44.760;37.726;2024-01-15T01:08:00;6.10;;;2.63;;
79025;SDS011;74892;44.760;37.726;2024-01-15T01:09:05;8.27;;;2.35;;
79025;SDS011;74892;44.760;37.726;2024-01-15T01:10:09;4.65;;;2.30;;
79025;SDS011;74892;44.760;37.726;2024-01-15T01:11:24;7.68;;;3.22;;
79025;SDS011;74892;44.760;37.726;2024-01-15T01:12:28;4.75;;;2.63;;
79025;SDS011;74892;44.760;37.726;2024-01-15T01:13:31;6.93;;;2.95;;
79025;SDS011;74892;44.760;37.726;2024-01-15T01:14:41;3.92;;;1.90;;
79025;SDS011;74892;44.760;37.726;2024-01-15T01:15:43;5.30;;;1.90;;
79025;SDS011;74892;44.760;37.726;2024-01-15T01:17:04;3.83;;;2.15;;
79025;SDS011;74892;44.760;37.726;2024-01-15T01:18:06;5.50;;;2.13;;
79025;SDS011;74892;44.760;37.726;2024-01-15T01:19:08;4.72;;;2.20;;
79025;SDS011;74892;44.760;37.726;2024-01-15T01:20:13;6.22;;;2.78;;
79025;SDS011;74892;44.760;37.726;2024-01-15T01:21:16;3.97;;;2.30;;
79025;SDS011;74892;44.760;37.726;2024-01-15T01:22:21;5.45;;;2.53;;
79025;SDS011;74892;44.760;37.726;2024-01-15T01:23:23;5.22;;;2.65;;
79025;SDS011;74892;44.760;37.726;2024-01-15T01:24:25;5.78;;;2.30;;
79025;SDS011;74892;44.760;37.726;2024-01-15T01:25:30;5.25;;;2.83;;
79025;SDS011;74892;44.760;37.726;2024-01-15T01:26:34;5.00;;;2.00;;
79025;SDS011;74892;44.760;37.726;2024-01-15T01:27:40;4.35;;;1.80;;
79025;SDS011;74892;44.760;37.726;2024-01-15T01:28:42;4.88;;;2.40;;
79025;SDS011;74892;44.760;37.726;2024-01-15T01:29:46;6.47;;;2.30;;
79025;SDS011;74892;44.760;37.726;2024-01-15T01:30:51;3.97;;;2.28;;
79025;SDS011;74892;44.760;37.726;2024-01-15T01:32:07;4.43;;;1.70;;
79025;SDS011;74892;44.760;37.726;2024-01-15T01:33:15;5.10;;;2.17;;
79025;SDS011;74892;44.760;37.726;2024-01-15T01:34:32;6.00;;;2.40;;
79025;SDS011;74892;44.760;37.726;2024-01-15T01:35:42;4.53;;;1.85;;
79025;SDS011;74892;44.760;37.726;2024-01-15T01:36:51;5.32;;;2.40;;
79025;SDS011;74892;44.760;37.726;2024-01-15T01:37:56;3.17;;;2.10;;
79025;SDS011;74892;44.760;37.726;2024-01-15T01:39:19;3.42;;;2.03;;
79025;SDS011;74892;44.760;37.726;2024-01-15T01:40:28;4.05;;;1.90;;
79025;SDS011;74892;44.760;37.726;2024-01-15T01:41:36;3.70;;;1.95;;
79025;SDS011;74892;44.760;37.726;2024-01-15T01:42:38;5.05;;;2.33;;
79025;SDS011;74892;44.760;37.726;2024-01-15T01:43:43;5.72;;;2.13;;
79025;SDS011;74892;44.760;37.726;2024-01-15T01:44:50;6.07;;;2.45;;
79025;SDS011;74892;44.760;37.726;2024-01-15T01:45:55;5.28;;;2.58;;
79025;SDS011;74892;44.760;37.726;2024-01-15T01:47:02;3.78;;;1.85;;
79025;SDS011;74892;44.760;37.726;2024-01-15T01:48:12;7.22;;;2.10;;
79025;SDS011;74892;44.760;37.726;2024-01-15T01:49:15;3.70;;;2.17;;
79025;SDS011;74892;44.760;37.726;2024-01-15T01:50:23;4.35;;;2.15;;
79025;SDS011;74892;44.760;37.726;2024-01-15T01:51:41;4.43;;;2.00;;
79025;SDS011;74892;44.760;37.726;2024-01-15T01:52:55;4.97;;;2.05;;
79025;SDS011;74892;44.760;37.726;2024-01-15T01:54:03;5.72;;;2.28;;
79025;SDS011;74892;44.760;37.726;2024-01-15T01:55:06;3.70;;;1.77;;
79025;SDS011;74892;44.760;37.726;2024-01-15T01:56:30;5.32;;;2.50;;
79025;SDS011;74892;44.760;37.726;2024-01-15T01:57:33;6.47;;;2.22;;
79025;SDS011;74892;44.760;37.726;2024-01-15T01:58:36;4.25;;;2.10;;
79025;SDS011;74892;44.760;37.726;2024-01-15T01:59:44;4.18;;;1.70;;
79025;SDS011;74892;44.760;37.726;2024-01-15T02:00:50;6.25;;;2.90;;
79025;SDS011;74892;44.760;37.726;2024-01-15T02:01:55;5.55;;;2.35;;
79025;SDS011;74892;44.760;37.726;2024-01-15T02:03:10;3.80;;;2.10;;
79025;SDS011;74892;44.760;37.726;2024-01-15T02:04:13;3.97;;;1.88;;
79025;SDS011;74892;44.760;37.726;2024-01-15T02:05:24;5.00;;;2.53;;
79025;SDS011;74892;44.760;37.726;2024-01-15T02:06:32;4.30;;;2.38;;
79025;SDS011;74892;44.760;37.726;2024-01-15T02:07:37;3.97;;;1.60;;
79025;SDS011;74892;44.760;37.726;2024-01-15T02:08:43;4.82;;;2.13;;
79025;SDS011;74892;44.760;37.726;2024-01-15T02:09:54;3.78;;;2.25;;
79025;SDS011;74892;44.760;37.726;2024-01-15T02:11:06;4.53;;;1.98;;
79025;SDS011;74892;44.760;37.726;2024-01-15T02:12:11;3.85;;;2.03;;
79025;SDS011;74892;44.760;37.726;2024-01-15T02:13:14;3.53;;;1.77;;
79025;SDS011;74892;44.760;37.726;2024-01-15T02:14:18;4.65;;;1.95;;
79025;SDS011;74892;44.760;37.726;2024-01-15T02:16:55;4.43;;;2.55;;
79025;SDS011;74892;44.760;37.726;2024-01-15T02:18:04;4.40;;;2.30;;
79025;SDS011;74892;44.760;37.726;2024-01-15T02:19:16;4.07;;;2.03;;
79025;SDS011;74892;44.760;37.726;2024-01-15T02:20:24;4.00;;;2.13;;
79025;SDS011;74892;44.760;37.726;2024-01-15T02:21:33;4.97;;;2.80;;
79025;SDS011;74892;44.760;37.726;2024-01-15T02:23:15;4.43;;;1.98;;
79025;SDS011;74892;44.760;37.726;2024-01-15T02:24:36;3.55;;;1.95;;
79025;SDS011;74892;44.760;37.726;2024-01-15T02:25:39;3.90;;;2.17;;
79025;SDS011;74892;44.760;37.726;2024-01-15T02:27:06;3.97;;;2.38;;
79025;SDS011;74892;44.760;37.726;2024-01-15T02:28:09;5.03;;;2.10;;
79025;SDS011;74892;44.760;37.726;2024-01-15T02:29:16;5.88;;;2.22;;
79025;SDS011;74892;44.760;37.726;2024-01-15T02:30:21;6.43;;;2.20;;
79025;SDS011;74892;44.760;37.726;2024-01-15T02:31:27;4.45;;;2.83;;
79025;SDS011;74892;44.760;37.726;2024-01-15T02:32:32;3.42;;;2.17;;
79025;SDS011;74892;44.760;37.726;2024-01-15T02:33:34;5.03;;;2.97;;
79025;SDS011;74892;44.760;37.726;2024-01-15T02:34:36;4.03;;;2.15;;
79025;SDS011;74892;44.760;37.726;2024-01-15T02:35:38;4.13;;;2.00;;
79025;SDS011;74892;44.760;37.726;2024-01-15T02:36:40;4.55;;;2.20;;
79025;SDS011;74892;44.760;37.726;2024-01-15T02:37:48;4.85;;;2.08;;
79025;SDS011;74892;44.760;37.726;2024-01-15T02:38:52;4.07;;;1.90;;
79025;SDS011;74892;44.760;37.726;2024-01-15T02:39:54;4.05;;;1.80;;
79025;SDS011;74892;44.760;37.726;2024-01-15T02:40:56;4.10;;;2.30;;
79025;SDS011;74892;44.760;37.726;2024-01-15T02:41:58;4.07;;;2.50;;
79025;SDS011;74892;44.760;37.726;2024-01-15T02:43:28;5.05;;;3.00;;
79025;SDS011;74892;44.760;37.726;2024-01-15T02:44:30;5.20;;;2.17;;
79025;SDS011;74892;44.760;37.726;2024-01-15T02:45:34;4.35;;;2.22;;
79025;SDS011;74892;44.760;37.726;2024-01-15T02:46:45;5.22;;;2.13;;
79025;SDS011;74892;44.760;37.726;2024-01-15T02:47:47;6.10;;;2.53;;
79025;SDS011;74892;44.760;37.726;2024-01-15T02:48:58;6.88;;;2.22;;
79025;SDS011;74892;44.760;37.726;2024-01-15T02:50:05;5.80;;;3.17;;
79025;SDS011;74892;44.760;37.726;2024-01-15T02:51:15;3.95;;;2.03;;
79025;SDS011;74892;44.760;37.726;2024-01-15T02:52:34;4.10;;;2.17;;
79025;SDS011;74892;44.760;37.726;2024-01-15T02:54:01;4.72;;;2.88;;
79025;SDS011;74892;44.760;37.726;2024-01-15T02:55:23;5.78;;;2.60;;
79025;SDS011;74892;44.760;37.726;2024-01-15T02:58:05;4.65;;;2.20;;
79025;SDS011;74892;44.760;37.726;2024-01-15T02:59:15;7.07;;;2.40;;
79025;SDS011;74892;44.760;37.726;2024-01-15T03:00:19;4.43;;;2.15;;
79025;SDS011;74892;44.760;37.726;2024-01-15T03:01:23;5.38;;;2.78;;
79025;SDS011;74892;44.760;37.726;2024-01-15T03:02:30;6.00;;;2.55;;
79025;SDS011;74892;44.760;37.726;2024-01-15T03:03:52;6.18;;;2.75;;
79025;SDS011;74892;44.760;37.726;2024-01-15T03:04:56;6.63;;;3.03;;
79025;SDS011;74892;44.760;37.726;2024-01-15T03:06:08;5.88;;;2.80;;
79025;SDS011;74892;44.760;37.726;2024-01-15T03:07:19;4.70;;;2.20;;
79025;SDS011;74892;44.760;37.726;2024-01-15T03:08:24;6.20;;;2.97;;
79025;SDS011;74892;44.760;37.726;2024-01-15T03:09:26;7.40;;;3.03;;
79025;SDS011;74892;44.760;37.726;2024-01-15T03:10:28;6.47;;;3.15;;
79025;SDS011;74892;44.760;37.726;2024-01-15T03:11:38;4.25;;;2.05;;
79025;SDS011;74892;44.760;37.726;2024-01-15T03:12:59;7.03;;;2.83;;
79025;SDS011;74892;44.760;37.726;2024-01-15T03:14:06;7.30;;;3.05;;
79025;SDS011;74892;44.760;37.726;2024-01-15T03:15:15;6.28;;;2.47;;
79025;SDS011;74892;44.760;37.726;2024-01-15T03:16:21;6.10;;;2.65;;
79025;SDS011;74892;44.760;37.726;2024-01-15T03:17:28;4.65;;;2.20;;
79025;SDS011;74892;44.760;37.726;2024-01-15T03:18:39;7.50;;;3.03;;
79025;SDS011;74892;44.760;37.726;2024-01-15T03:20:05;6.15;;;3.25;;
79025;SDS011;74892;44.760;37.726;2024-01-15T03:21:17;4.50;;;2.22;;
79025;SDS011;74892;44.760;37.726;2024-01-15T03:22:21;6.38;;;2.83;;
79025;SDS011;74892;44.760;37.726;2024-01-15T03:23:27;6.65;;;3.15;;
79025;SDS011;74892;44.760;37.726;2024-01-15T03:24:29;7.68;;;3.65;;
79025;SDS011;74892;44.760;37.726;2024-01-15T03:28:21;8.93;;;4.25;;
79025;SDS011;74892;44.760;37.726;2024-01-15T03:29:23;7.18;;;3.65;;
79025;SDS011;74892;44.760;37.726;2024-01-15T03:30:27;6.78;;;3.58;;
79025;SDS011;74892;44.760;37.726;2024-01-15T03:31:32;7.25;;;3.80;;
79025;SDS011;74892;44.760;37.726;2024-01-15T03:32:37;6.07;;;3.58;;
79025;SDS011;74892;44.760;37.726;2024-01-15T03:35:03;8.77;;;3.53;;
79025;SDS011;74892;44.760;37.726;2024-01-15T03:36:05;7.63;;;3.75;;
79025;SDS011;74892;44.760;37.726;2024-01-15T03:37:12;7.65;;;4.13;;
79025;SDS011;74892;44.760;37.726;2024-01-15T03:38:14;6.88;;;3.30;;
79025;SDS011;74892;44.760;37.726;2024-01-15T03:39:19;7.55;;;3.63;;
79025;SDS011;74892;44.760;37.726;2024-01-15T03:40:42;6.60;;;3.95;;
79025;SDS011;74892;44.760;37.726;2024-01-15T03:41:47;7.20;;;3.53;;
79025;SDS011;74892;44.760;37.726;2024-01-15T03:42:52;7.15;;;3.50;;
79025;SDS011;74892;44.760;37.726;2024-01-15T03:45:19;6.53;;;3.45;;
79025;SDS011;74892;44.760;37.726;2024-01-15T03:46:30;9.00;;;3.97;;
79025;SDS011;74892;44.760;37.726;2024-01-15T03:47:34;7.25;;;3.55;;
79025;SDS011;74892;44.760;37.726;2024-01-15T03:48:43;8.38;;;4.10;;
79025;SDS011;74892;44.760;37.726;2024-01-15T03:49:45;8.35;;;3.65;;
79025;SDS011;74892;44.760;37.726;2024-01-15T03:50:54;6.60;;;3.72;;
79025;SDS011;74892;44.760;37.726;2024-01-15T03:52:02;7.40;;;4.07;;
79025;SDS011;74892;44.760;37.726;2024-01-15T03:53:14;8.18;;;3.83;;
79025;SDS011;74892;44.760;37.726;2024-01-15T03:54:24;7.72;;;4.53;;
79025;SDS011;74892;44.760;37.726;2024-01-15T03:55:47;5.95;;;3.70;;
79025;SDS011;74892;44.760;37.726;2024-01-15T03:56:58;7.15;;;4.47;;
79025;SDS011;74892;44.760;37.726;2024-01-15T03:58:14;8.70;;;3.45;;
79025;SDS011;74892;44.760;37.726;2024-01-15T03:59:28;9.90;;;4.22;;
79025;SDS011;74892;44.760;37.726;2024-01-15T04:00:37;7.20;;;4.35;;
79025;SDS011;74892;44.760;37.726;2024-01-15T04:02:11;10.45;;;4.32;;
79025;SDS011;74892;44.760;37.726;2024-01-15T04:03:32;6.97;;;4.13;;
79025;SDS011;74892;44.760;37.726;2024-01-15T04:04:54;8.60;;;5.25;;
79025;SDS011;74892;44.760;37.726;2024-01-15T04:06:29;8.40;;;3.42;;
79025;SDS011;74892;44.760;37.726;2024-01-15T04:07:36;6.15;;;3.67;;
79025;SDS011;74892;44.760;37.726;2024-01-15T04:08:58;5.22;;;3.60;;
79025;SDS011;74892;44.760;37.726;2024-01-15T04:10:06;7.35;;;4.03;;
79025;SDS011;74892;44.760;37.726;2024-01-15T04:11:30;5.10;;;3.33;;
79025;SDS011;74892;44.760;37.726;2024-01-15T04:12:42;7.45;;;3.65;;
79025;SDS011;74892;44.760;37.726;2024-01-15T04:14:06;5.88;;;3.35;;
79025;SDS011;74892;44.760;37.726;2024-01-15T04:15:36;8.23;;;3.72;;
79025;SDS011;74892;44.760;37.726;2024-01-15T04:16:49;5.60;;;3.60;;
79025;SDS011;74892;44.760;37.726;2024-01-15T04:18:02;6.82;;;3.88;;
79025;SDS011;74892;44.760;37.726;2024-01-15T04:19:25;6.18;;;3.22;;
79025;SDS011;74892;44.760;37.726;2024-01-15T04:20:35;8.90;;;3.78;;
79025;SDS011;74892;44.760;37.726;2024-01-15T04:21:48;8.55;;;4.97;;
79025;SDS011;74892;44.760;37.726;2024-01-15T04:22:53;6.03;;;3.47;;
79025;SDS011;74892;44.760;37.726;2024-01-15T04:23:57;7.10;;;3.88;;
79025;SDS011;74892;44.760;37.726;2024-01-15T04:24:59;7.10;;;4.22;;
79025;SDS011;74892;44.760;37.726;2024-01-15T04:26:04;6.95;;;3.72;;
79025;SDS011;74892;44.760;37.726;2024-01-15T04:27:09;8.02;;;4.30;;
79025;SDS011;74892;44.760;37.726;2024-01-15T04:28:29;6.00;;;3.55;;
79025;SDS011;74892;44.760;37.726;2024-01-15T04:29:33;5.93;;;3.20;;
79025;SDS011;74892;44.760;37.726;2024-01-15T04:32:04;5.63;;;2.75;;
79025;SDS011;74892;44.760;37.726;2024-01-15T04:33:06;6.00;;;3.00;;
79025;SDS011;74892;44.760;37.726;2024-01-15T04:34:10;5.53;;;3.25;;
79025;SDS011;74892;44.760;37.726;2024-01-15T04:35:12;5.85;;;3.00;;
79025;SDS011;74892;44.760;37.726;2024-01-15T04:36:38;6.00;;;3.42;;
79025;SDS011;74892;44.760;37.726;2024-01-15T04:37:44;5.55;;;3.22;;
79025;SDS011;74892;44.760;37.726;2024-01-15T04:38:48;5.80;;;2.90;;
79025;SDS011;74892;44.760;37.726;2024-01-15T04:39:50;5.50;;;2.65;;
79025;SDS011;74892;44.760;37.726;2024-01-15T04:40:55;7.38;;;2.83;;
79025;SDS011;74892;44.760;37.726;2024-01-15T04:42:03;7.53;;;3.70;;
79025;SDS011;74892;44.760;37.726;2024-01-15T04:43:05;9.32;;;3.70;;
79025;SDS011;74892;44.760;37.726;2024-01-15T04:44:14;7.03;;;2.75;;
79025;SDS011;74892;44.760;37.726;2024-01-15T04:45:19;7.30;;;3.28;;
79025;SDS011;74892;44.760;37.726;2024-01-15T04:46:24;5.70;;;2.78;;
79025;SDS011;74892;44.760;37.726;2024-01-15T04:47:25;7.28;;;3.28;;
79025;SDS011;74892;44.760;37.726;2024-01-15T04:48:36;9.43;;;3.75;;
79025;SDS011;74892;44.760;37.726;2024-01-15T04:49:50;6.78;;;3.60;;
79025;SDS011;74892;44.760;37.726;2024-01-15T04:50:54;7.38;;;3.75;;
79025;SDS011;74892;44.760;37.726;2024-01-15T04:51:56;5.55;;;3.28;;
79025;SDS011;74892;44.760;37.726;2024-01-15T04:53:03;9.00;;;4.00;;
79025;SDS011;74892;44.760;37.726;2024-01-15T04:54:14;10.65;;;3.50;;
79025;SDS011;74892;44.760;37.726;2024-01-15T04:55:19;6.82;;;3.67;;
79025;SDS011;74892;44.760;37.726;2024-01-15T04:56:24;6.97;;;3.95;;
79025;SDS011;74892;44.760;37.726;2024-01-15T04:57:28;8.18;;;4.13;;
79025;SDS011;74892;44.760;37.726;2024-01-15T04:58:32;9.27;;;3.90;;
79025;SDS011;74892;44.760;37.726;2024-01-15T04:59:37;8.65;;;3.88;;
79025;SDS011;74892;44.760;37.726;2024-01-15T05:01:03;7.65;;;4.05;;
79025;SDS011;74892;44.760;37.726;2024-01-15T05:02:05;5.70;;;4.18;;
79025;SDS011;74892;44.760;37.726;2024-01-15T05:03:07;7.68;;;3.65;;
79025;SDS011;74892;44.760;37.726;2024-01-15T05:04:09;6.20;;;3.78;;
79025;SDS011;74892;44.760;37.726;2024-01-15T05:05:11;6.70;;;3.60;;
79025;SDS011;74892;44.760;37.726;2024-01-15T05:06:31;7.40;;;3.70;;
79025;SDS011;74892;44.760;37.726;2024-01-15T05:07:33;6.03;;;3.38;;
79025;SDS011;74892;44.760;37.726;2024-01-15T05:08:38;8.95;;;3.60;;
79025;SDS011;74892;44.760;37.726;2024-01-15T05:09:42;6.80;;;3.83;;
79025;SDS011;74892;44.760;37.726;2024-01-15T05:10:47;8.02;;;3.35;;
79025;SDS011;74892;44.760;37.726;2024-01-15T05:11:54;8.85;;;4.32;;
79025;SDS011;74892;44.760;37.726;2024-01-15T05:12:58;8.75;;;3.80;;
79025;SDS011;74892;44.760;37.726;2024-01-15T05:14:02;8.32;;;4.13;;
79025;SDS011;74892;44.760;37.726;2024-01-15T05:15:04;7.53;;;4.80;;
79025;SDS011;74892;44.760;37.726;2024-01-15T05:16:09;9.07;;;4.18;;
79025;SDS011;74892;44.760;37.726;2024-01-15T05:17:13;7.78;;;4.43;;
79025;SDS011;74892;44.760;37.726;2024-01-15T05:18:16;11.23;;;4.85;;
79025;SDS011;74892;44.760;37.726;2024-01-15T05:19:18;13.07;;;4.93;;
79025;SDS011;74892;44.760;37.726;2024-01-15T05:20:19;11.95;;;4.85;;
79025;SDS011;74892;44.760;37.726;2024-01-15T05:21:21;8.50;;;4.20;;
79025;SDS011;74892;44.760;37.726;2024-01-15T05:22:22;7.88;;;4.53;;
79025;SDS011;74892;44.760;37.726;2024-01-15T05:23:25;7.22;;;4.20;;
79025;SDS011;74892;44.760;37.726;2024-01-15T05:24:27;13.25;;;6.20;;
79025;SDS011;74892;44.760;37.726;2024-01-15T05:25:28;10.23;;;4.78;;
79025;SDS011;74892;44.760;37.726;2024-01-15T05:26:30;11.15;;;5.70;;
79025;SDS011;74892;44.760;37.726;2024-01-15T05:27:31;12.35;;;5.60;;
79025;SDS011;74892;44.760;37.726;2024-01-15T05:28:33;9.85;;;6.18;;
79025;SDS011;74892;44.760;37.726;2024-01-15T05:29:34;11.52;;;6.95;;
79025;SDS011;74892;44.760;37.726;2024-01-15T05:30:36;13.40;;;6.93;;
79025;SDS011;74892;44.760;37.726;2024-01-15T05:31:37;14.93;;;6.15;;
79025;SDS011;74892;44.760;37.726;2024-01-15T05:32:39;13.10;;;7.05;;
79025;SDS011;74892;44.760;37.726;2024-01-15T05:33:44;13.00;;;6.75;;
79025;SDS011;74892;44.760;37.726;2024-01-15T05:34:45;14.25;;;6.78;;
79025;SDS011;74892;44.760;37.726;2024-01-15T05:35:47;16.08;;;6.43;;
79025;SDS011;74892;44.760;37.726;2024-01-15T05:36:54;11.73;;;6.68;;
79025;SDS011;74892;44.760;37.726;2024-01-15T05:37:55;13.82;;;6.63;;
79025;SDS011;74892;44.760;37.726;2024-01-15T05:40:17;14.88;;;6.53;;
79025;SDS011;74892;44.760;37.726;2024-01-15T05:41:19;10.05;;;5.82;;
79025;SDS011;74892;44.760;37.726;2024-01-15T05:42:20;13.88;;;6.40;;
79025;SDS011;74892;44.760;37.726;2024-01-15T05:45:00;11.00;;;5.78;;
79025;SDS011;74892;44.760;37.726;2024-01-15T05:46:04;13.25;;;6.90;;
79025;SDS011;74892;44.760;37.726;2024-01-15T05:47:06;11.52;;;6.15;;
79025;SDS011;74892;44.760;37.726;2024-01-15T05:48:09;13.15;;;6.93;;
79025;SDS011;74892;44.760;37.726;2024-01-15T05:49:10;15.77;;;6.43;;
79025;SDS011;74892;44.760;37.726;2024-01-15T05:50:30;13.10;;;6.40;;
79025;SDS011;74892;44.760;37.726;2024-01-15T05:51:32;11.23;;;5.10;;
79025;SDS011;74892;44.760;37.726;2024-01-15T05:52:33;11.18;;;5.70;;
79025;SDS011;74892;44.760;37.726;2024-01-15T05:53:35;12.55;;;5.45;;
79025;SDS011;74892;44.760;37.726;2024-01-15T05:56:00;13.65;;;5.47;;
79025;SDS011;74892;44.760;37.726;2024-01-15T05:57:02;12.48;;;6.30;;
79025;SDS011;74892;44.760;37.726;2024-01-15T05:58:04;12.43;;;5.90;;
79025;SDS011;74892;44.760;37.726;2024-01-15T05:59:06;11.20;;;6.35;;
79025;SDS011;74892;44.760;37.726;2024-01-15T06:00:08;9.85;;;6.20;;
79025;SDS011;74892;44.760;37.726;2024-01-15T06:01:13;14.35;;;6.10;;
79025;SDS011;74892;44.760;37.726;2024-01-15T06:02:14;10.13;;;5.40;;
79025;SDS011;74892;44.760;37.726;2024-01-15T06:03:34;11.48;;;5.70;;
79025;SDS011;74892;44.760;37.726;2024-01-15T06:04:36;10.07;;;5.85;;
79025;SDS011;74892;44.760;37.726;2024-01-15T06:05:38;8.43;;;4.68;;
79025;SDS011;74892;44.760;37.726;2024-01-15T06:06:40;11.60;;;6.03;;
79025;SDS011;74892;44.760;37.726;2024-01-15T06:07:42;15.60;;;6.07;;
79025;SDS011;74892;44.760;37.726;2024-01-15T06:08:43;12.60;;;5.70;;
79025;SDS011;74892;44.760;37.726;2024-01-15T06:09:45;10.98;;;5.93;;
79025;SDS011;74892;44.760;37.726;2024-01-15T06:10:46;10.45;;;5.63;;
79025;SDS011;74892;44.760;37.726;2024-01-15T06:12:07;10.20;;;5.78;;
79025;SDS011;74892;44.760;37.726;2024-01-15T06:13:28;12.80;;;5.72;;
79025;SDS011;74892;44.760;37.726;2024-01-15T06:14:30;10.75;;;4.97;;
79025;SDS011;74892;44.760;37.726;2024-01-15T06:15:31;11.20;;;5.00;;
79025;SDS011;74892;44.760;37.726;2024-01-15T06:16:33;10.52;;;4.63;;
79025;SDS011;74892;44.760;37.726;2024-01-15T06:17:35;10.40;;;5.68;;
79025;SDS011;74892;44.760;37.726;2024-01-15T06:18:36;10.18;;;4.95;;
79025;SDS011;74892;44.760;37.726;2024-01-15T06:19:38;10.23;;;5.47;;
79025;SDS011;74892;44.760;37.726;2024-01-15T06:20:40;13.57;;;5.63;;
79025;SDS011;74892;44.760;37.726;2024-01-15T06:21:41;13.32;;;6.20;;
79025;SDS011;74892;44.760;37.726;2024-01-15T06:22:43;14.88;;;6.25;;
79025;SDS011;74892;44.760;37.726;2024-01-15T06:23:45;12.25;;;6.40;;
79025;SDS011;74892;44.760;37.726;2024-01-15T06:24:46;9.98;;;6.03;;
79025;SDS011;74892;44.760;37.726;2024-01-15T06:25:48;10.07;;;5.05;;
79025;SDS011;74892;44.760;37.726;2024-01-15T06:26:50;10.73;;;6.13;;
79025;SDS011;74892;44.760;37.726;2024-01-15T06:28:10;8.43;;;5.18;;
79025;SDS011;74892;44.760;37.726;2024-01-15T06:29:11;9.90;;;5.45;;
79025;SDS011;74892;44.760;37.726;2024-01-15T06:30:13;11.40;;;5.63;;
79025;SDS011;74892;44.760;37.726;2024-01-15T06:31:15;10.68;;;5.82;;
79025;SDS011;74892;44.760;37.726;2024-01-15T06:32:17;10.50;;;4.97;;
79025;SDS011;74892;44.760;37.726;2024-01-15T06:33:18;10.27;;;4.97;;
79025;SDS011;74892;44.760;37.726;2024-01-15T06:34:20;11.20;;;4.32;;
79025;SDS011;74892;44.760;37.726;2024-01-15T06:35:24;8.40;;;4.32;;
79025;SDS011;74892;44.760;37.726;2024-01-15T06:36:26;10.20;;;4.05;;
79025;SDS011;74892;44.760;37.726;2024-01-15T06:37:28;12.43;;;3.92;;
79025;SDS011;74892;44.760;37.726;2024-01-15T06:38:29;8.75;;;3.38;;
79025;SDS011;74892;44.760;37.726;2024-01-15T06:39:31;7.72;;;3.28;;
79025;SDS011;74892;44.760;37.726;2024-01-15T06:40:33;7.28;;;3.28;;
79025;SDS011;74892;44.760;37.726;2024-01-15T06:41:35;7.72;;;2.80;;
79025;SDS011;74892;44.760;37.726;2024-01-15T06:42:44;8.10;;;3.17;;
79025;SDS011;74892;44.760;37.726;2024-01-15T06:43:46;6.55;;;2.90;;
79025;SDS011;74892;44.760;37.726;2024-01-15T06:44:51;6.05;;;2.75;;
79025;SDS011;74892;44.760;37.726;2024-01-15T06:45:52;7.00;;;3.22;;
79025;SDS011;74892;44.760;37.726;2024-01-15T06:46:55;6.10;;;2.90;;
79025;SDS011;74892;44.760;37.726;2024-01-15T06:47:58;6.45;;;3.70;;
79025;SDS011;74892;44.760;37.726;2024-01-15T06:49:00;8.65;;;3.40;;
79025;SDS011;74892;44.760;37.726;2024-01-15T06:50:21;10.10;;;3.50;;
79025;SDS011;74892;44.760;37.726;2024-01-15T06:51:22;7.95;;;3.38;;
79025;SDS011;74892;44.760;37.726;2024-01-15T06:52:24;7.75;;;3.25;;
79025;SDS011;74892;44.760;37.726;2024-01-15T06:53:26;8.52;;;3.58;;
79025;SDS011;74892;44.760;37.726;2024-01-15T06:54:28;6.00;;;2.85;;
79025;SDS011;74892;44.760;37.726;2024-01-15T06:55:30;6.03;;;3.25;;